sensor_id;sensor_type;location;lat;lon;timestamp;P1;durP1;ratioP1;P2;durP2;ratioP2
19780;SDS011;10050;55.492;13.506;2022-12-04T00:02:00;4.87;;;3.60;;
19780;SDS011;10050;55.492;13.506;2022-12-04T00:04:25;9.87;;;3.73;;
19780;SDS011;10050;55.492;13.506;2022-12-04T00:06:53;5.07;;;3.50;;
19780;SDS011;10050;55.492;13.506;2022-12-04T00:09:19;4.87;;;3.30;;
19780;SDS011;10050;55.492;13.506;2022-12-04T00:11:45;5.07;;;3.63;;
19780;SDS011;10050;55.492;13.506;2022-12-04T00:14:11;4.70;;;3.20;;
19780;SDS011;10050;55.492;13.506;2022-12-04T00:16:36;3.53;;;3.23;;
19780;SDS011;10050;55.492;13.506;2022-12-04T00:19:02;4.83;;;2.70;;
19780;SDS011;10050;55.492;13.506;2022-12-04T00:21:28;4.50;;;2.80;;
19780;SDS011;10050;55.492;13.506;2022-12-04T00:23:53;3.67;;;2.90;;
19780;SDS011;10050;55.492;13.506;2022-12-04T00:26:23;5.07;;;2.97;;
19780;SDS011;10050;55.492;13.506;2022-12-04T00:28:51;3.93;;;2.37;;
19780;SDS011;10050;55.492;13.506;2022-12-04T00:31:18;2.67;;;2.33;;
19780;SDS011;10050;55.492;13.506;2022-12-04T00:33:45;2.63;;;2.30;;
19780;SDS011;10050;55.492;13.506;2022-12-04T00:36:12;2.83;;;2.03;;
19780;SDS011;10050;55.492;13.506;2022-12-04T00:38:40;2.33;;;2.10;;
19780;SDS011;10050;55.492;13.506;2022-12-04T00:41:10;1.93;;;1.80;;
19780;SDS011;10050;55.492;13.506;2022-12-04T00:43:37;2.20;;;2.00;;
19780;SDS011;10050;55.492;13.506;2022-12-04T00:46:03;2.03;;;1.87;;
19780;SDS011;10050;55.492;13.506;2022-12-04T00:48:28;2.27;;;2.07;;
19780;SDS011;10050;55.492;13.506;2022-12-04T00:50:54;2.20;;;1.97;;
19780;SDS011;10050;55.492;13.506;2022-12-04T00:53:22;3.13;;;2.30;;
19780;SDS011;10050;55.492;13.506;2022-12-04T00:55:47;2.87;;;2.50;;
19780;SDS011;10050;55.492;13.506;2022-12-04T00:58:13;2.27;;;2.07;;
19780;SDS011;10050;55.492;13.506;2022-12-04T01:00:40;2.27;;;2.07;;
19780;SDS011;10050;55.492;13.506;2022-12-04T01:03:07;2.17;;;1.80;;
19780;SDS011;10050;55.492;13.506;2022-12-04T01:05:37;4.37;;;2.00;;
19780;SDS011;10050;55.492;13.506;2022-12-04T01:08:04;2.37;;;1.97;;
19780;SDS011;10050;55.492;13.506;2022-12-04T01:10:30;3.43;;;2.30;;
19780;SDS011;10050;55.492;13.506;2022-12-04T01:12:56;2.60;;;2.07;;
19780;SDS011;10050;55.492;13.506;2022-12-04T01:15:22;2.47;;;2.20;;
19780;SDS011;10050;55.492;13.506;2022-12-04T01:17:48;2.57;;;2.07;;
19780;SDS011;10050;55.492;13.506;2022-12-04T01:20:14;2.93;;;2.60;;
19780;SDS011;10050;55.492;13.506;2022-12-04T01:22:40;3.63;;;2.00;;
19780;SDS011;10050;55.492;13.506;2022-12-04T01:25:06;4.27;;;2.40;;
19780;SDS011;10050;55.492;13.506;2022-12-04T01:27:32;2.67;;;2.27;;
19780;SDS011;10050;55.492;13.506;2022-12-04T01:29:58;4.17;;;2.73;;
19780;SDS011;10050;55.492;13.506;2022-12-04T01:32:24;2.67;;;2.30;;
19780;SDS011;10050;55.492;13.506;2022-12-04T01:34:49;4.23;;;2.37;;
19780;SDS011;10050;55.492;13.506;2022-12-04T01:37:15;3.23;;;2.50;;
19780;SDS011;10050;55.492;13.506;2022-12-04T01:39:41;2.47;;;2.10;;
19780;SDS011;10050;55.492;13.506;2022-12-04T01:42:09;2.50;;;2.30;;
19780;SDS011;10050;55.492;13.506;2022-12-04T01:44:37;2.30;;;2.10;;
19780;SDS011;10050;55.492;13.506;2022-12-04T01:47:05;2.30;;;1.90;;
19780;SDS011;10050;55.492;13.506;2022-12-04T01:49:41;3.53;;;2.27;;
19780;SDS011;10050;55.492;13.506;2022-12-04T01:52:11;2.57;;;2.37;;
19780;SDS011;10050;55.492;13.506;2022-12-04T01:54:43;2.70;;;2.00;;
19780;SDS011;10050;55.492;13.506;2022-12-04T01:57:12;1.97;;;1.77;;
19780;SDS011;10050;55.492;13.506;2022-12-04T01:59:41;2.37;;;1.67;;
19780;SDS011;10050;55.492;13.506;2022-12-04T02:02:11;3.30;;;1.80;;
19780;SDS011;10050;55.492;13.506;2022-12-04T02:04:39;2.03;;;1.73;;
19780;SDS011;10050;55.492;13.506;2022-12-04T02:07:05;2.67;;;1.80;;
19780;SDS011;10050;55.492;13.506;2022-12-04T02:09:31;2.33;;;1.40;;
19780;SDS011;10050;55.492;13.506;2022-12-04T02:14:48;3.87;;;1.60;;
19780;SDS011;10050;55.492;13.506;2022-12-04T02:17:27;2.53;;;1.67;;
19780;SDS011;10050;55.492;13.506;2022-12-04T02:20:18;2.23;;;2.03;;
19780;SDS011;10050;55.492;13.506;2022-12-04T02:26:29;2.20;;;1.50;;
19780;SDS011;10050;55.492;13.506;2022-12-04T02:29:26;4.27;;;1.40;;
19780;SDS011;10050;55.492;13.506;2022-12-04T02:32:18;4.10;;;1.70;;
19780;SDS011;10050;55.492;13.506;2022-12-04T02:35:00;2.17;;;1.60;;
19780;SDS011;10050;55.492;13.506;2022-12-04T02:37:52;1.97;;;1.80;;
19780;SDS011;10050;55.492;13.506;2022-12-04T02:40:25;1.47;;;1.37;;
19780;SDS011;10050;55.492;13.506;2022-12-04T02:45:28;2.80;;;1.63;;
19780;SDS011;10050;55.492;13.506;2022-12-04T02:47:56;1.73;;;1.53;;
19780;SDS011;10050;55.492;13.506;2022-12-04T02:50:26;1.77;;;1.67;;
19780;SDS011;10050;55.492;13.506;2022-12-04T02:53:16;1.93;;;1.60;;
19780;SDS011;10050;55.492;13.506;2022-12-04T02:55:53;1.70;;;1.60;;
19780;SDS011;10050;55.492;13.506;2022-12-04T02:58:36;3.40;;;1.90;;
19780;SDS011;10050;55.492;13.506;2022-12-04T03:01:07;1.40;;;1.30;;
19780;SDS011;10050;55.492;13.506;2022-12-04T03:03:50;2.63;;;1.53;;
19780;SDS011;10050;55.492;13.506;2022-12-04T03:06:51;2.10;;;1.90;;
19780;SDS011;10050;55.492;13.506;2022-12-04T03:09:33;2.87;;;2.10;;
19780;SDS011;10050;55.492;13.506;2022-12-04T03:12:45;3.17;;;2.20;;
19780;SDS011;10050;55.492;13.506;2022-12-04T03:15:33;2.10;;;1.90;;
19780;SDS011;10050;55.492;13.506;2022-12-04T03:17:51;2.50;;;2.30;;
19780;SDS011;10050;55.492;13.506;2022-12-04T03:20:20;2.83;;;2.10;;
19780;SDS011;10050;55.492;13.506;2022-12-04T03:22:48;2.30;;;2.00;;
19780;SDS011;10050;55.492;13.506;2022-12-04T03:25:19;2.10;;;1.87;;
19780;SDS011;10050;55.492;13.506;2022-12-04T03:27:56;2.00;;;1.60;;
19780;SDS011;10050;55.492;13.506;2022-12-04T03:30:25;2.43;;;1.70;;
19780;SDS011;10050;55.492;13.506;2022-12-04T03:33:00;2.13;;;1.93;;
19780;SDS011;10050;55.492;13.506;2022-12-04T03:41:18;2.40;;;1.63;;
19780;SDS011;10050;55.492;13.506;2022-12-04T03:52:24;2.83;;;2.00;;
19780;SDS011;10050;55.492;13.506;2022-12-04T03:57:40;3.10;;;2.80;;
19780;SDS011;10050;55.492;13.506;2022-12-04T04:02:52;4.00;;;2.80;;
19780;SDS011;10050;55.492;13.506;2022-12-04T04:05:22;3.83;;;2.97;;
19780;SDS011;10050;55.492;13.506;2022-12-04T04:07:55;4.40;;;3.10;;
19780;SDS011;10050;55.492;13.506;2022-12-04T04:10:44;5.20;;;3.40;;
19780;SDS011;10050;55.492;13.506;2022-12-04T04:13:10;6.03;;;3.17;;
19780;SDS011;10050;55.492;13.506;2022-12-04T04:15:59;6.30;;;3.50;;
19780;SDS011;10050;55.492;13.506;2022-12-04T04:18:47;5.47;;;3.70;;
19780;SDS011;10050;55.492;13.506;2022-12-04T04:21:32;7.07;;;4.17;;
19780;SDS011;10050;55.492;13.506;2022-12-04T04:25:04;6.97;;;3.90;;
19780;SDS011;10050;55.492;13.506;2022-12-04T04:27:11;6.77;;;4.07;;
19780;SDS011;10050;55.492;13.506;2022-12-04T04:29:37;8.10;;;4.47;;
19780;SDS011;10050;55.492;13.506;2022-12-04T04:35:24;8.37;;;4.17;;
19780;SDS011;10050;55.492;13.506;2022-12-04T04:43:45;6.13;;;4.23;;
19780;SDS011;10050;55.492;13.506;2022-12-04T04:46:41;8.40;;;4.50;;
19780;SDS011;10050;55.492;13.506;2022-12-04T04:49:12;6.13;;;4.20;;
19780;SDS011;10050;55.492;13.506;2022-12-04T04:51:40;6.03;;;4.20;;
19780;SDS011;10050;55.492;13.506;2022-12-04T04:54:07;6.60;;;4.33;;
19780;SDS011;10050;55.492;13.506;2022-12-04T04:56:42;7.40;;;4.23;;
19780;SDS011;10050;55.492;13.506;2022-12-04T04:59:10;9.20;;;3.83;;
19780;SDS011;10050;55.492;13.506;2022-12-04T05:01:35;6.60;;;4.13;;
19780;SDS011;10050;55.492;13.506;2022-12-04T05:04:03;4.33;;;3.40;;
19780;SDS011;10050;55.492;13.506;2022-12-04T05:06:29;4.57;;;3.57;;
19780;SDS011;10050;55.492;13.506;2022-12-04T05:08:54;6.13;;;3.63;;
19780;SDS011;10050;55.492;13.506;2022-12-04T05:11:20;7.10;;;3.70;;
19780;SDS011;10050;55.492;13.506;2022-12-04T05:13:46;6.43;;;4.23;;
19780;SDS011;10050;55.492;13.506;2022-12-04T05:16:12;10.60;;;5.07;;
19780;SDS011;10050;55.492;13.506;2022-12-04T05:18:39;7.27;;;5.20;;
19780;SDS011;10050;55.492;13.506;2022-12-04T05:21:25;7.53;;;4.60;;
19780;SDS011;10050;55.492;13.506;2022-12-04T05:23:51;7.20;;;4.70;;
19780;SDS011;10050;55.492;13.506;2022-12-04T05:26:16;5.13;;;4.47;;
19780;SDS011;10050;55.492;13.506;2022-12-04T05:28:42;8.00;;;4.80;;
19780;SDS011;10050;55.492;13.506;2022-12-04T05:31:08;5.57;;;4.40;;
19780;SDS011;10050;55.492;13.506;2022-12-04T05:33:33;6.70;;;4.90;;
19780;SDS011;10050;55.492;13.506;2022-12-04T05:36:00;8.13;;;4.50;;
19780;SDS011;10050;55.492;13.506;2022-12-04T05:38:27;4.93;;;3.70;;
19780;SDS011;10050;55.492;13.506;2022-12-04T05:40:53;7.33;;;4.03;;
19780;SDS011;10050;55.492;13.506;2022-12-04T05:43:21;7.87;;;3.90;;
19780;SDS011;10050;55.492;13.506;2022-12-04T05:45:47;7.17;;;4.40;;
19780;SDS011;10050;55.492;13.506;2022-12-04T05:48:12;5.40;;;4.30;;
19780;SDS011;10050;55.492;13.506;2022-12-04T05:50:38;6.00;;;4.87;;
19780;SDS011;10050;55.492;13.506;2022-12-04T05:53:03;5.93;;;4.47;;
19780;SDS011;10050;55.492;13.506;2022-12-04T05:55:29;4.27;;;3.80;;
19780;SDS011;10050;55.492;13.506;2022-12-04T05:57:54;5.73;;;3.53;;
19780;SDS011;10050;55.492;13.506;2022-12-04T06:00:21;5.77;;;3.90;;
19780;SDS011;10050;55.492;13.506;2022-12-04T06:02:46;5.63;;;4.03;;
19780;SDS011;10050;55.492;13.506;2022-12-04T06:05:13;5.00;;;3.93;;
19780;SDS011;10050;55.492;13.506;2022-12-04T06:07:39;5.23;;;3.67;;
19780;SDS011;10050;55.492;13.506;2022-12-04T06:10:05;4.93;;;4.17;;
19780;SDS011;10050;55.492;13.506;2022-12-04T06:12:31;6.47;;;4.13;;
19780;SDS011;10050;55.492;13.506;2022-12-04T06:14:57;4.93;;;4.17;;
19780;SDS011;10050;55.492;13.506;2022-12-04T06:17:23;4.70;;;3.97;;
19780;SDS011;10050;55.492;13.506;2022-12-04T06:19:49;6.43;;;3.93;;
19780;SDS011;10050;55.492;13.506;2022-12-04T06:22:14;4.97;;;4.23;;
19780;SDS011;10050;55.492;13.506;2022-12-04T06:24:40;4.93;;;4.00;;
19780;SDS011;10050;55.492;13.506;2022-12-04T06:27:05;7.13;;;4.60;;
19780;SDS011;10050;55.492;13.506;2022-12-04T06:29:31;4.77;;;4.27;;
19780;SDS011;10050;55.492;13.506;2022-12-04T06:31:57;5.90;;;4.00;;
19780;SDS011;10050;55.492;13.506;2022-12-04T06:34:22;5.10;;;4.40;;
19780;SDS011;10050;55.492;13.506;2022-12-04T06:36:48;5.00;;;4.07;;
19780;SDS011;10050;55.492;13.506;2022-12-04T06:39:13;5.03;;;4.17;;
19780;SDS011;10050;55.492;13.506;2022-12-04T06:41:39;5.27;;;4.27;;
19780;SDS011;10050;55.492;13.506;2022-12-04T06:44:05;4.73;;;4.27;;
19780;SDS011;10050;55.492;13.506;2022-12-04T06:46:31;4.10;;;3.70;;
19780;SDS011;10050;55.492;13.506;2022-12-04T06:48:58;3.73;;;3.40;;
19780;SDS011;10050;55.492;13.506;2022-12-04T06:53:52;4.50;;;4.10;;
19780;SDS011;10050;55.492;13.506;2022-12-04T06:56:19;4.67;;;3.80;;
19780;SDS011;10050;55.492;13.506;2022-12-04T06:58:47;7.10;;;4.37;;
19780;SDS011;10050;55.492;13.506;2022-12-04T07:01:15;4.17;;;3.67;;
19780;SDS011;10050;55.492;13.506;2022-12-04T07:03:43;5.23;;;4.37;;
19780;SDS011;10050;55.492;13.506;2022-12-04T07:06:10;5.47;;;4.23;;
19780;SDS011;10050;55.492;13.506;2022-12-04T07:08:50;4.97;;;4.27;;
19780;SDS011;10050;55.492;13.506;2022-12-04T07:11:18;6.73;;;4.50;;
19780;SDS011;10050;55.492;13.506;2022-12-04T07:13:44;5.17;;;4.60;;
19780;SDS011;10050;55.492;13.506;2022-12-04T07:16:11;4.47;;;4.07;;
19780;SDS011;10050;55.492;13.506;2022-12-04T07:18:38;4.70;;;4.27;;
19780;SDS011;10050;55.492;13.506;2022-12-04T07:21:04;5.87;;;4.57;;
19780;SDS011;10050;55.492;13.506;2022-12-04T07:23:31;5.23;;;4.47;;
19780;SDS011;10050;55.492;13.506;2022-12-04T07:25:57;5.93;;;4.77;;
19780;SDS011;10050;55.492;13.506;2022-12-04T07:28:27;6.20;;;4.60;;
19780;SDS011;10050;55.492;13.506;2022-12-04T07:30:53;6.30;;;4.57;;
19780;SDS011;10050;55.492;13.506;2022-12-04T07:33:18;6.40;;;5.30;;
19780;SDS011;10050;55.492;13.506;2022-12-04T07:35:44;6.20;;;5.20;;
19780;SDS011;10050;55.492;13.506;2022-12-04T07:38:09;7.77;;;5.20;;
19780;SDS011;10050;55.492;13.506;2022-12-04T07:40:36;7.27;;;5.00;;
19780;SDS011;10050;55.492;13.506;2022-12-04T07:43:02;7.87;;;5.87;;
19780;SDS011;10050;55.492;13.506;2022-12-04T07:45:27;8.07;;;5.50;;
19780;SDS011;10050;55.492;13.506;2022-12-04T07:47:53;9.00;;;5.40;;
19780;SDS011;10050;55.492;13.506;2022-12-04T07:50:18;6.60;;;5.73;;
19780;SDS011;10050;55.492;13.506;2022-12-04T07:52:44;7.00;;;5.83;;
19780;SDS011;10050;55.492;13.506;2022-12-04T07:55:10;8.57;;;6.60;;
19780;SDS011;10050;55.492;13.506;2022-12-04T07:57:35;6.90;;;6.20;;
19780;SDS011;10050;55.492;13.506;2022-12-04T08:00:01;9.17;;;7.13;;
19780;SDS011;10050;55.492;13.506;2022-12-04T08:02:27;8.63;;;6.37;;
19780;SDS011;10050;55.492;13.506;2022-12-04T08:04:53;7.30;;;5.60;;
19780;SDS011;10050;55.492;13.506;2022-12-04T08:07:19;9.30;;;6.60;;
19780;SDS011;10050;55.492;13.506;2022-12-04T08:09:44;8.70;;;6.37;;
19780;SDS011;10050;55.492;13.506;2022-12-04T08:12:10;6.97;;;6.20;;
19780;SDS011;10050;55.492;13.506;2022-12-04T08:14:35;7.10;;;5.80;;
19780;SDS011;10050;55.492;13.506;2022-12-04T08:17:01;7.93;;;6.20;;
19780;SDS011;10050;55.492;13.506;2022-12-04T08:19:27;7.20;;;6.30;;
19780;SDS011;10050;55.492;13.506;2022-12-04T08:21:52;7.60;;;6.57;;
19780;SDS011;10050;55.492;13.506;2022-12-04T08:24:19;7.30;;;6.33;;
19780;SDS011;10050;55.492;13.506;2022-12-04T08:26:45;7.90;;;6.63;;
19780;SDS011;10050;55.492;13.506;2022-12-04T08:29:10;8.30;;;6.93;;
19780;SDS011;10050;55.492;13.506;2022-12-04T08:31:36;7.53;;;6.57;;
19780;SDS011;10050;55.492;13.506;2022-12-04T08:34:03;8.50;;;6.90;;
19780;SDS011;10050;55.492;13.506;2022-12-04T08:36:30;8.33;;;7.40;;
19780;SDS011;10050;55.492;13.506;2022-12-04T08:38:56;9.53;;;7.33;;
19780;SDS011;10050;55.492;13.506;2022-12-04T08:41:22;9.73;;;7.90;;
19780;SDS011;10050;55.492;13.506;2022-12-04T08:43:50;8.67;;;6.83;;
19780;SDS011;10050;55.492;13.506;2022-12-04T08:46:20;8.83;;;7.53;;
19780;SDS011;10050;55.492;13.506;2022-12-04T08:48:46;9.87;;;6.93;;
19780;SDS011;10050;55.492;13.506;2022-12-04T08:51:13;9.43;;;7.30;;
19780;SDS011;10050;55.492;13.506;2022-12-04T08:53:41;8.47;;;7.37;;
19780;SDS011;10050;55.492;13.506;2022-12-04T08:56:06;10.27;;;7.60;;
19780;SDS011;10050;55.492;13.506;2022-12-04T08:58:32;8.27;;;7.43;;
19780;SDS011;10050;55.492;13.506;2022-12-04T09:01:08;9.37;;;8.40;;
19780;SDS011;10050;55.492;13.506;2022-12-04T09:03:36;10.53;;;7.77;;
19780;SDS011;10050;55.492;13.506;2022-12-04T09:06:02;8.47;;;7.17;;
19780;SDS011;10050;55.492;13.506;2022-12-04T09:08:29;11.23;;;7.53;;
19780;SDS011;10050;55.492;13.506;2022-12-04T09:11:06;10.17;;;7.77;;
19780;SDS011;10050;55.492;13.506;2022-12-04T09:13:36;10.47;;;8.53;;
19780;SDS011;10050;55.492;13.506;2022-12-04T09:16:04;11.00;;;8.00;;
19780;SDS011;10050;55.492;13.506;2022-12-04T09:18:31;8.93;;;7.67;;
19780;SDS011;10050;55.492;13.506;2022-12-04T09:20:59;12.37;;;8.23;;
19780;SDS011;10050;55.492;13.506;2022-12-04T09:23:25;9.33;;;8.00;;
19780;SDS011;10050;55.492;13.506;2022-12-04T09:25:52;11.23;;;8.00;;
19780;SDS011;10050;55.492;13.506;2022-12-04T09:28:18;10.80;;;8.90;;
19780;SDS011;10050;55.492;13.506;2022-12-04T09:30:44;12.97;;;8.67;;
19780;SDS011;10050;55.492;13.506;2022-12-04T09:33:09;10.60;;;8.37;;
19780;SDS011;10050;55.492;13.506;2022-12-04T09:35:37;10.40;;;8.17;;
19780;SDS011;10050;55.492;13.506;2022-12-04T09:38:03;11.17;;;9.00;;
19780;SDS011;10050;55.492;13.506;2022-12-04T09:40:29;10.80;;;8.57;;
19780;SDS011;10050;55.492;13.506;2022-12-04T09:45:41;10.43;;;8.03;;
19780;SDS011;10050;55.492;13.506;2022-12-04T09:48:25;10.53;;;8.53;;
19780;SDS011;10050;55.492;13.506;2022-12-04T09:51:00;10.93;;;8.47;;
19780;SDS011;10050;55.492;13.506;2022-12-04T09:53:39;13.03;;;9.23;;
19780;SDS011;10050;55.492;13.506;2022-12-04T09:56:14;10.23;;;7.93;;
19780;SDS011;10050;55.492;13.506;2022-12-04T10:01:22;13.53;;;8.20;;
19780;SDS011;10050;55.492;13.506;2022-12-04T10:03:51;9.97;;;7.57;;
19780;SDS011;10050;55.492;13.506;2022-12-04T10:06:22;14.10;;;8.77;;
19780;SDS011;10050;55.492;13.506;2022-12-04T10:08:54;11.47;;;9.00;;
19780;SDS011;10050;55.492;13.506;2022-12-04T10:11:51;12.83;;;8.80;;
19780;SDS011;10050;55.492;13.506;2022-12-04T10:19:59;10.17;;;7.90;;
19780;SDS011;10050;55.492;13.506;2022-12-04T10:25:40;8.50;;;7.60;;
19780;SDS011;10050;55.492;13.506;2022-12-04T10:30:51;10.10;;;7.97;;
19780;SDS011;10050;55.492;13.506;2022-12-04T10:36:05;11.30;;;9.85;;
19780;SDS011;10050;55.492;13.506;2022-12-04T10:38:47;13.63;;;8.17;;
19780;SDS011;10050;55.492;13.506;2022-12-04T10:44:15;9.47;;;7.77;;
19780;SDS011;10050;55.492;13.506;2022-12-04T10:46:42;10.20;;;7.63;;
19780;SDS011;10050;55.492;13.506;2022-12-04T10:49:14;9.77;;;7.63;;
19780;SDS011;10050;55.492;13.506;2022-12-04T10:51:47;10.43;;;8.03;;
19780;SDS011;10050;55.492;13.506;2022-12-04T10:57:03;9.73;;;7.97;;
19780;SDS011;10050;55.492;13.506;2022-12-04T10:59:52;9.93;;;6.73;;
19780;SDS011;10050;55.492;13.506;2022-12-04T11:02:20;12.10;;;7.83;;
19780;SDS011;10050;55.492;13.506;2022-12-04T11:04:53;9.40;;;6.97;;
19780;SDS011;10050;55.492;13.506;2022-12-04T11:07:34;10.80;;;7.47;;
19780;SDS011;10050;55.492;13.506;2022-12-04T11:15:50;13.33;;;8.50;;
19780;SDS011;10050;55.492;13.506;2022-12-04T11:18:19;10.60;;;8.70;;
19780;SDS011;10050;55.492;13.506;2022-12-04T11:21:03;10.07;;;8.47;;
19780;SDS011;10050;55.492;13.506;2022-12-04T11:23:32;11.00;;;7.97;;
19780;SDS011;10050;55.492;13.506;2022-12-04T11:26:10;11.07;;;9.00;;
19780;SDS011;10050;55.492;13.506;2022-12-04T11:28:37;9.60;;;7.63;;
19780;SDS011;10050;55.492;13.506;2022-12-04T11:31:05;16.50;;;9.10;;
19780;SDS011;10050;55.492;13.506;2022-12-04T11:33:36;12.87;;;9.07;;
19780;SDS011;10050;55.492;13.506;2022-12-04T11:36:06;12.23;;;9.23;;
19780;SDS011;10050;55.492;13.506;2022-12-04T11:38:49;12.50;;;8.67;;
19780;SDS011;10050;55.492;13.506;2022-12-04T11:41:25;11.73;;;8.87;;
19780;SDS011;10050;55.492;13.506;2022-12-04T11:43:52;13.50;;;9.43;;
19780;SDS011;10050;55.492;13.506;2022-12-04T11:46:20;13.00;;;8.90;;
19780;SDS011;10050;55.492;13.506;2022-12-04T11:48:47;13.53;;;9.77;;
19780;SDS011;10050;55.492;13.506;2022-12-04T11:54:34;11.27;;;9.07;;
19780;SDS011;10050;55.492;13.506;2022-12-04T11:57:15;13.27;;;9.20;;
19780;SDS011;10050;55.492;13.506;2022-12-04T12:05:38;15.00;;;10.30;;
19780;SDS011;10050;55.492;13.506;2022-12-04T12:11:21;16.63;;;10.93;;
19780;SDS011;10050;55.492;13.506;2022-12-04T12:21:53;15.17;;;10.37;;
19780;SDS011;10050;55.492;13.506;2022-12-04T12:27:09;15.97;;;10.27;;
19780;SDS011;10050;55.492;13.506;2022-12-04T12:35:04;12.17;;;9.30;;
19780;SDS011;10050;55.492;13.506;2022-12-04T12:38:08;12.70;;;9.50;;
19780;SDS011;10050;55.492;13.506;2022-12-04T12:40:41;17.33;;;9.50;;
19780;SDS011;10050;55.492;13.506;2022-12-04T12:43:27;13.40;;;9.67;;
19780;SDS011;10050;55.492;13.506;2022-12-04T12:51:05;13.93;;;9.80;;
19780;SDS011;10050;55.492;13.506;2022-12-04T12:53:44;14.13;;;9.87;;
19780;SDS011;10050;55.492;13.506;2022-12-04T12:56:13;11.03;;;9.23;;
19780;SDS011;10050;55.492;13.506;2022-12-04T13:01:20;11.73;;;9.80;;
19780;SDS011;10050;55.492;13.506;2022-12-04T13:06:23;11.03;;;9.27;;
19780;SDS011;10050;55.492;13.506;2022-12-04T13:11:45;12.03;;;9.30;;
19780;SDS011;10050;55.492;13.506;2022-12-04T13:14:13;12.93;;;9.93;;
19780;SDS011;10050;55.492;13.506;2022-12-04T13:16:43;14.73;;;11.65;;
19780;SDS011;10050;55.492;13.506;2022-12-04T13:19:20;14.57;;;12.65;;
19780;SDS011;10050;55.492;13.506;2022-12-04T13:30:35;14.33;;;9.03;;
19780;SDS011;10050;55.492;13.506;2022-12-04T13:33:22;11.63;;;8.77;;
19780;SDS011;10050;55.492;13.506;2022-12-04T13:41:25;11.70;;;9.83;;
19780;SDS011;10050;55.492;13.506;2022-12-04T13:43:53;11.83;;;9.03;;
19780;SDS011;10050;55.492;13.506;2022-12-04T13:46:26;10.83;;;9.27;;
19780;SDS011;10050;55.492;13.506;2022-12-04T13:49:08;12.30;;;10.10;;
19780;SDS011;10050;55.492;13.506;2022-12-04T13:51:49;13.53;;;9.47;;
19780;SDS011;10050;55.492;13.506;2022-12-04T13:56:41;10.20;;;8.97;;
19780;SDS011;10050;55.492;13.506;2022-12-04T14:07:23;11.20;;;8.77;;
19780;SDS011;10050;55.492;13.506;2022-12-04T14:09:50;9.27;;;8.13;;
19780;SDS011;10050;55.492;13.506;2022-12-04T14:12:23;10.33;;;8.90;;
19780;SDS011;10050;55.492;13.506;2022-12-04T14:14:54;10.83;;;9.20;;
19780;SDS011;10050;55.492;13.506;2022-12-04T14:19:56;11.30;;;9.10;;
19780;SDS011;10050;55.492;13.506;2022-12-04T14:25:52;10.97;;;9.07;;
19780;SDS011;10050;55.492;13.506;2022-12-04T14:29:03;13.13;;;9.40;;
19780;SDS011;10050;55.492;13.506;2022-12-04T14:31:12;11.17;;;9.67;;
19780;SDS011;10050;55.492;13.506;2022-12-04T14:33:43;10.90;;;8.90;;
19780;SDS011;10050;55.492;13.506;2022-12-04T14:36:39;11.97;;;9.77;;
19780;SDS011;10050;55.492;13.506;2022-12-04T14:39:13;11.53;;;9.20;;
19780;SDS011;10050;55.492;13.506;2022-12-04T14:41:49;13.97;;;9.73;;
19780;SDS011;10050;55.492;13.506;2022-12-04T14:44:22;10.33;;;8.83;;
19780;SDS011;10050;55.492;13.506;2022-12-04T14:46:51;10.93;;;9.10;;
19780;SDS011;10050;55.492;13.506;2022-12-04T14:49:43;11.37;;;9.03;;
19780;SDS011;10050;55.492;13.506;2022-12-04T15:00:19;12.40;;;9.63;;
19780;SDS011;10050;55.492;13.506;2022-12-04T15:02:47;11.73;;;9.37;;
19780;SDS011;10050;55.492;13.506;2022-12-04T15:05:21;15.03;;;10.80;;
19780;SDS011;10050;55.492;13.506;2022-12-04T15:07:49;11.80;;;9.63;;
19780;SDS011;10050;55.492;13.506;2022-12-04T15:10:19;12.40;;;9.83;;
19780;SDS011;10050;55.492;13.506;2022-12-04T15:13:06;12.87;;;9.57;;
19780;SDS011;10050;55.492;13.506;2022-12-04T15:15:32;12.27;;;9.80;;
19780;SDS011;10050;55.492;13.506;2022-12-04T15:18:10;13.40;;;10.07;;
19780;SDS011;10050;55.492;13.506;2022-12-04T15:20:40;13.00;;;10.07;;
19780;SDS011;10050;55.492;13.506;2022-12-04T15:23:17;11.90;;;9.40;;
19780;SDS011;10050;55.492;13.506;2022-12-04T15:25:55;12.47;;;10.00;;
19780;SDS011;10050;55.492;13.506;2022-12-04T15:30:52;13.60;;;9.43;;
19780;SDS011;10050;55.492;13.506;2022-12-04T15:33:29;11.93;;;9.67;;
19780;SDS011;10050;55.492;13.506;2022-12-04T15:38:43;11.00;;;9.33;;
19780;SDS011;10050;55.492;13.506;2022-12-04T15:41:28;15.17;;;10.07;;
19780;SDS011;10050;55.492;13.506;2022-12-04T15:44:01;10.97;;;9.67;;
19780;SDS011;10050;55.492;13.506;2022-12-04T15:46:45;12.53;;;9.33;;
19780;SDS011;10050;55.492;13.506;2022-12-04T15:49:23;10.63;;;9.37;;
19780;SDS011;10050;55.492;13.506;2022-12-04T15:51:51;13.67;;;9.97;;
19780;SDS011;10050;55.492;13.506;2022-12-04T15:54:31;14.00;;;9.67;;
19780;SDS011;10050;55.492;13.506;2022-12-04T15:57:01;12.70;;;9.33;;
19780;SDS011;10050;55.492;13.506;2022-12-04T15:59:29;12.93;;;9.80;;
19780;SDS011;10050;55.492;13.506;2022-12-04T16:01:58;10.77;;;9.03;;
19780;SDS011;10050;55.492;13.506;2022-12-04T16:04:44;10.00;;;8.53;;
19780;SDS011;10050;55.492;13.506;2022-12-04T16:07:20;11.17;;;8.80;;
19780;SDS011;10050;55.492;13.506;2022-12-04T16:09:50;10.07;;;7.93;;
19780;SDS011;10050;55.492;13.506;2022-12-04T16:12:22;10.67;;;8.50;;
19780;SDS011;10050;55.492;13.506;2022-12-04T16:14:51;10.90;;;8.67;;
19780;SDS011;10050;55.492;13.506;2022-12-04T16:17:18;10.37;;;9.03;;
19780;SDS011;10050;55.492;13.506;2022-12-04T16:19:51;12.03;;;8.67;;
19780;SDS011;10050;55.492;13.506;2022-12-04T16:22:19;10.50;;;8.90;;
19780;SDS011;10050;55.492;13.506;2022-12-04T16:24:47;10.70;;;8.37;;
19780;SDS011;10050;55.492;13.506;2022-12-04T16:27:14;10.83;;;8.30;;
19780;SDS011;10050;55.492;13.506;2022-12-04T16:29:41;9.60;;;7.90;;
19780;SDS011;10050;55.492;13.506;2022-12-04T16:32:11;9.67;;;8.00;;
19780;SDS011;10050;55.492;13.506;2022-12-04T16:34:40;9.73;;;8.73;;
19780;SDS011;10050;55.492;13.506;2022-12-04T16:37:13;10.33;;;8.33;;
19780;SDS011;10050;55.492;13.506;2022-12-04T16:39:44;12.17;;;9.50;;
19780;SDS011;10050;55.492;13.506;2022-12-04T16:42:28;12.17;;;9.40;;
19780;SDS011;10050;55.492;13.506;2022-12-04T16:44:54;13.33;;;9.53;;
19780;SDS011;10050;55.492;13.506;2022-12-04T16:47:19;13.00;;;10.00;;
19780;SDS011;10050;55.492;13.506;2022-12-04T16:49:46;11.87;;;9.67;;
19780;SDS011;10050;55.492;13.506;2022-12-04T16:52:14;13.90;;;10.47;;
19780;SDS011;10050;55.492;13.506;2022-12-04T16:54:40;14.50;;;10.60;;
19780;SDS011;10050;55.492;13.506;2022-12-04T16:57:06;15.03;;;10.80;;
19780;SDS011;10050;55.492;13.506;2022-12-04T16:59:34;17.03;;;12.07;;
19780;SDS011;10050;55.492;13.506;2022-12-04T17:02:00;19.17;;;12.60;;
19780;SDS011;10050;55.492;13.506;2022-12-04T17:04:26;16.03;;;11.90;;
19780;SDS011;10050;55.492;13.506;2022-12-04T17:06:52;17.00;;;12.53;;
19780;SDS011;10050;55.492;13.506;2022-12-04T17:09:17;17.57;;;12.37;;
19780;SDS011;10050;55.492;13.506;2022-12-04T17:11:43;18.17;;;12.47;;
19780;SDS011;10050;55.492;13.506;2022-12-04T17:14:09;18.70;;;13.13;;
19780;SDS011;10050;55.492;13.506;2022-12-04T17:16:36;16.27;;;12.53;;
19780;SDS011;10050;55.492;13.506;2022-12-04T17:19:10;18.57;;;13.03;;
19780;SDS011;10050;55.492;13.506;2022-12-04T17:21:37;22.03;;;13.40;;
19780;SDS011;10050;55.492;13.506;2022-12-04T17:24:04;20.37;;;12.93;;
19780;SDS011;10050;55.492;13.506;2022-12-04T17:26:30;21.83;;;13.70;;